Time;durP1;ratioP1;P1;durP2;ratioP2;P2;SDS_P1;SDS_P2;PMS_P1;PMS_P2;Temp;Humidity;BMP_temperature;BMP_pressure;BME280_temperature;BME280_humidity;BME280_pressure;Samples;Min_cycle;Max_cycle;Signal;HPM_P1;HPM_P2
2022/02/10 00:16:05;;;;;;;;;;;8.40;99.90;;;;;;5216516;27;44245;-80
2022/02/10 00:21:03;;;;;;;;;;;8.30;99.90;;;;;;5215886;27;42431;-80
2022/02/10 00:34:31;;;;;;;;;;;8.30;99.90;;;;;;5215696;27;43537;-81
2022/02/10 00:37:11;;;;;;;;;;;8.20;99.90;;;;;;5216832;27;20021;-80
2022/02/10 00:40:07;;;;;;;;;;;8.20;99.90;;;;;;5216297;27;43121;-80
2022/02/10 00:42:25;;;;;;;;;;;8.20;99.90;;;;;;5215701;27;43603;-81
2022/02/10 00:44:53;;;;;;;;;;;8.20;99.90;;;;;;5197649;27;43256;-80
2022/02/10 00:47:20;;;;;;;;;;;8.20;99.90;;;;;;5216392;27;44211;-81
2022/02/10 00:49:47;;;;;;;;;;;8.20;99.90;;;;;;5216169;27;44421;-81
2022/02/10 00:52:15;;;;;;;;;;;8.20;99.90;;;;;;5197434;27;44600;-81
2022/02/10 00:54:42;;;;;;;;;;;8.20;99.90;;;;;;5196804;27;44467;-81
2022/02/10 00:57:09;;;;;;;;;;;8.20;99.90;;;;;;5215586;27;44307;-81
2022/02/10 00:59:58;;;;;;;;;;;8.20;99.90;;;;;;5196863;27;42289;-81
2022/02/10 01:30:02;;;;;;;;;;;8.10;99.90;;;;;;5215439;27;42872;-81
2022/02/10 01:32:29;;;;;;;;;;;8.10;99.90;;;;;;5215302;27;42589;-81
2022/02/10 01:34:56;;;;;;;;;;;8.10;99.90;;;;;;5196665;27;43062;-80
2022/02/10 01:37:23;;;;;;;;;;;8.10;99.90;;;;;;5196521;27;44016;-81
2022/02/10 01:39:55;;;;;;;;;;;8.00;99.90;;;;;;5216343;27;19992;-81
2022/02/10 02:04:21;;;;;;;;;;;8.00;99.90;;;;;;5215809;27;44537;-81
2022/02/10 02:06:51;;;;;;;;;;;8.00;99.90;;;;;;5215158;27;44211;-81
2022/02/10 02:09:21;;;;;;;;;;;8.00;99.90;;;;;;5215142;27;43897;-80
2022/02/10 02:11:51;;;;;;;;;;;7.90;99.90;;;;;;5216087;27;20031;-81
2022/02/10 02:14:22;;;;;;;;;;;7.90;99.90;;;;;;5215552;27;45536;-81
2022/02/10 02:16:54;;;;;;;;;;;7.90;99.90;;;;;;5196255;27;43088;-80
2022/02/10 02:19:21;;;;;;;;;;;7.90;99.90;;;;;;5196797;27;43964;-80
2022/02/10 02:21:48;;;;;;;;;;;7.90;99.90;;;;;;5215041;27;43098;-81
2022/02/10 02:24:19;;;;;;;;;;;7.90;99.90;;;;;;5196289;27;43544;-80
2022/02/10 02:26:49;;;;;;;;;;;7.90;99.90;;;;;;5196858;27;45563;-81
2022/02/10 02:29:30;;;;;;;;;;;7.90;99.90;;;;;;5197548;27;46065;-81
2022/02/10 02:32:00;;;;;;;;;;;7.90;99.90;;;;;;5215781;27;44262;-81
2022/02/10 02:37:48;;;;;;;;;;;7.80;99.90;;;;;;5214989;27;42753;-80
2022/02/10 03:05:16;;;;;;;;;;;7.70;99.90;;;;;;5215273;27;43385;-80
2022/02/10 03:07:49;;;;;;;;;;;7.70;99.90;;;;;;5196131;27;44123;-81
2022/02/10 03:10:38;;;;;;;;;;;7.70;99.90;;;;;;5196639;27;43403;-80
2022/02/10 03:13:09;;;;;;;;;;;7.70;99.90;;;;;;5215845;27;19984;-81
2022/02/10 03:15:49;;;;;;;;;;;7.70;99.90;;;;;;5215118;27;44092;-81
2022/02/10 03:18:57;;;;;;;;;;;7.70;99.90;;;;;;5215001;27;44105;-81
2022/02/10 04:07:36;;;;;;;;;;;7.60;99.90;;;;;;5216479;27;45988;-81
2022/02/10 04:28:49;;;;;;;;;;;7.50;99.90;;;;;;5215853;27;44146;-80
2022/02/10 05:01:36;;;;;;;;;;;7.50;99.90;;;;;;5215775;27;43282;-81
2022/02/10 05:15:22;;;;;;;;;;;7.50;99.90;;;;;;5215778;27;37096;-81
2022/02/10 05:17:57;;;;;;;;;;;7.40;99.90;;;;;;5215712;27;44325;-81
2022/02/10 05:31:27;;;;;;;;;;;7.40;99.90;;;;;;5216356;27;43530;-81
2022/02/10 05:33:58;;;;;;;;;;;7.40;99.90;;;;;;5216141;27;42364;-80
2022/02/10 05:36:29;;;;;;;;;;;7.50;99.90;;;;;;5197093;27;44173;-80
2022/02/10 05:39:17;;;;;;;;;;;7.40;99.90;;;;;;5215343;27;42673;-81
2022/02/10 05:56:03;;;;;;;;;;;7.40;99.90;;;;;;5215677;27;43213;-81
2022/02/10 07:15:05;;;;;;;;;;;7.40;99.90;;;;;;5214856;27;42848;-81
2022/02/10 07:47:43;;;;;;;;;;;7.50;99.90;;;;;;5216147;27;44925;-81
2022/02/10 07:51:09;;;;;;;;;;;7.50;99.90;;;;;;5216795;27;20023;-81
2022/02/10 07:53:16;;;;;;;;;;;7.50;99.90;;;;;;5201668;27;42437;-81
2022/02/10 08:51:17;;;;;;;;;;;7.50;99.90;;;;;;5217116;27;19988;-81
2022/02/10 09:01:34;;;;;;;;;;;7.50;99.90;;;;;;5215825;27;43252;-81
2022/02/10 09:04:18;;;;;;;;;;;7.50;99.90;;;;;;5215774;27;43068;-81
2022/02/10 10:02:58;;;;;;;;;;;7.50;99.90;;;;;;5128954;28;42688;-81
2022/02/10 10:05:37;;;;;;;;;;;7.50;99.90;;;;;;5112488;28;43237;-81
2022/02/10 10:08:21;;;;;;;;;;;7.50;99.90;;;;;;5175655;27;43372;-81
2022/02/10 10:16:40;;;;;;;;;;;7.60;99.90;;;;;;5215758;27;43506;-81
2022/02/10 10:21:44;;;;;;;;;;;7.60;99.90;;;;;;5215032;27;44214;-81
2022/02/10 10:49:49;;;;;;;;;;;7.60;99.90;;;;;;5214961;27;42328;-81
2022/02/10 10:54:29;;;;;;;;;;;7.60;99.90;;;;;;5218915;27;19995;-80
2022/02/10 10:57:01;;;;;;;;;;;7.60;99.90;;;;;;5198979;27;43262;-79
2022/02/10 11:39:27;;;;;;;;;;;7.70;99.90;;;;;;5217752;27;43981;-79
2022/02/10 11:42:03;;;;;;;;;;;7.70;99.90;;;;;;5198679;27;43129;-80
2022/02/10 11:45:17;;;;;;;;;;;7.70;99.90;;;;;;5199138;27;44104;-79
2022/02/10 13:24:02;;;;;;;;;;;7.70;99.90;;;;;;5216161;27;43245;-79
2022/02/10 13:35:13;;;;;;;;;;;7.80;99.90;;;;;;5215846;27;44028;-80
2022/02/10 14:17:45;;;;;;;;;;;7.80;99.90;;;;;;5215229;27;44183;-80
2022/02/10 14:20:34;;;;;;;;;;;7.80;99.90;;;;;;5215073;27;43289;-79
2022/02/10 14:28:27;;;;;;;;;;;7.80;99.90;;;;;;5215325;27;44142;-79
2022/02/10 14:30:55;;;;;;;;;;;7.80;99.90;;;;;;5197789;27;20007;-80
2022/02/10 14:33:31;;;;;;;;;;;7.80;99.90;;;;;;5196229;27;43806;-79
2022/02/10 14:36:08;;;;;;;;;;;7.80;99.90;;;;;;5215774;27;43883;-79
2022/02/10 14:38:54;;;;;;;;;;;7.80;99.90;;;;;;5196252;27;42701;-80
2022/02/10 16:17:04;;;;;;;;;;;7.80;99.90;;;;;;5173849;27;43524;-80
2022/02/10 16:19:32;;;;;;;;;;;7.80;99.90;;;;;;5173112;27;44120;-80
2022/02/10 16:22:21;;;;;;;;;;;7.80;99.90;;;;;;5172667;27;44000;-80
2022/02/10 16:24:51;;;;;;;;;;;7.80;99.90;;;;;;5173754;27;43603;-80
2022/02/10 16:27:27;;;;;;;;;;;7.80;99.90;;;;;;5174085;27;44217;-79
2022/02/10 16:30:04;;;;;;;;;;;7.80;99.90;;;;;;5189750;27;42767;-80
2022/02/10 16:32:32;;;;;;;;;;;7.80;99.90;;;;;;5190632;27;44033;-80
2022/02/10 16:35:03;;;;;;;;;;;7.80;99.90;;;;;;5175520;27;20030;-79
2022/02/10 16:37:31;;;;;;;;;;;7.80;99.90;;;;;;5172836;27;43526;-80
2022/02/10 16:40:04;;;;;;;;;;;7.80;99.90;;;;;;5188893;27;43079;-80
2022/02/10 16:42:36;;;;;;;;;;;7.80;99.90;;;;;;5189014;27;43399;-80
2022/02/10 16:45:08;;;;;;;;;;;7.80;99.90;;;;;;5172420;27;43087;-80
2022/02/10 16:47:40;;;;;;;;;;;7.80;99.90;;;;;;5172437;27;42317;-79
2022/02/10 16:50:07;;;;;;;;;;;7.80;99.90;;;;;;5173286;27;43075;-79
2022/02/10 16:52:45;;;;;;;;;;;7.80;99.90;;;;;;5188817;27;43390;-80
2022/02/10 16:58:05;;;;;;;;;;;7.80;99.90;;;;;;5174299;27;43033;-80
2022/02/10 17:14:03;;;;;;;;;;;7.80;99.90;;;;;;5217031;27;19985;-79
2022/02/10 17:25:32;;;;;;;;;;;7.70;99.90;;;;;;5216120;27;44270;-79
2022/02/10 17:28:02;;;;;;;;;;;7.70;99.90;;;;;;5197444;27;43526;-79
2022/02/10 17:31:36;;;;;;;;;;;7.70;99.90;;;;;;5200295;27;44233;-79
2022/02/10 17:36:37;;;;;;;;;;;7.60;99.90;;;;;;5216360;27;19984;-79
2022/02/10 17:42:31;;;;;;;;;;;7.60;99.90;;;;;;5182843;27;43786;-79
2022/02/10 17:53:28;;;;;;;;;;;7.50;99.90;;;;;;5215226;27;44102;-79
2022/02/10 17:55:55;;;;;;;;;;;7.50;99.90;;;;;;5197170;27;44243;-79
2022/02/10 17:58:23;;;;;;;;;;;7.60;99.90;;;;;;5215302;27;43825;-79
2022/02/10 18:00:51;;;;;;;;;;;7.50;99.90;;;;;;5196290;27;44637;-79
2022/02/10 18:03:19;;;;;;;;;;;7.50;99.90;;;;;;5195983;27;42965;-79
2022/02/10 18:08:32;;;;;;;;;;;7.50;99.90;;;;;;5215348;27;44148;-79
2022/02/10 18:16:26;;;;;;;;;;;7.40;99.90;;;;;;5215401;27;43529;-79
2022/02/10 18:19:04;;;;;;;;;;;7.40;99.90;;;;;;5197299;27;43446;-79
2022/02/10 19:10:58;;;;;;;;;;;7.20;99.90;;;;;;5215330;27;44278;-81
2022/02/10 19:13:26;;;;;;;;;;;7.10;99.90;;;;;;5215325;27;44198;-80
2022/02/10 19:15:57;;;;;;;;;;;7.10;99.90;;;;;;5197611;27;42646;-80
2022/02/10 19:18:44;;;;;;;;;;;7.10;99.90;;;;;;5217010;27;46187;-80
2022/02/10 19:21:11;;;;;;;;;;;7.10;99.90;;;;;;5197405;27;43518;-80
2022/02/10 19:23:38;;;;;;;;;;;7.10;99.90;;;;;;5216124;27;45367;-80
2022/02/10 19:26:05;;;;;;;;;;;7.10;99.90;;;;;;5216365;27;42354;-80
2022/02/10 19:28:32;;;;;;;;;;;7.00;99.90;;;;;;5197616;27;43855;-80
2022/02/10 19:31:01;;;;;;;;;;;7.00;99.90;;;;;;5216811;27;44072;-80
2022/02/10 19:33:29;;;;;;;;;;;7.00;99.90;;;;;;5197819;27;43954;-80
2022/02/10 19:35:57;;;;;;;;;;;7.00;99.90;;;;;;5216319;27;43973;-80
2022/02/10 19:38:26;;;;;;;;;;;7.00;99.90;;;;;;5198435;27;20007;-80
2022/02/10 19:40:55;;;;;;;;;;;7.00;99.90;;;;;;5216054;27;44313;-80
2022/02/10 19:43:22;;;;;;;;;;;7.00;99.90;;;;;;5197359;27;43686;-80
2022/02/10 19:45:50;;;;;;;;;;;7.00;99.90;;;;;;5197360;27;44334;-80
2022/02/10 19:48:17;;;;;;;;;;;7.00;99.90;;;;;;5197407;27;44143;-80
2022/02/10 19:50:44;;;;;;;;;;;6.90;99.90;;;;;;5216141;27;43916;-80
2022/02/10 19:53:18;;;;;;;;;;;7.00;99.90;;;;;;5198462;27;43007;-80
2022/02/10 19:55:48;;;;;;;;;;;7.00;99.90;;;;;;5216086;27;42712;-80
2022/02/10 19:58:21;;;;;;;;;;;6.90;99.90;;;;;;5216112;27;44301;-80
2022/02/10 20:00:51;;;;;;;;;;;7.00;99.90;;;;;;5197844;27;43124;-80
2022/02/10 20:03:21;;;;;;;;;;;6.90;99.90;;;;;;5215928;27;43377;-80
2022/02/10 20:05:50;;;;;;;;;;;6.90;99.90;;;;;;5216604;27;43013;-80
2022/02/10 20:08:22;;;;;;;;;;;6.90;99.90;;;;;;5197131;27;43722;-80
2022/02/10 20:10:53;;;;;;;;;;;6.90;99.90;;;;;;5215940;27;43537;-80
2022/02/10 20:13:22;;;;;;;;;;;6.90;99.90;;;;;;5197961;27;45821;-80
2022/02/10 20:15:50;;;;;;;;;;;6.80;99.90;;;;;;5216661;27;45274;-80
2022/02/10 20:18:18;;;;;;;;;;;6.80;99.90;;;;;;5197292;27;43584;-80
2022/02/10 20:20:46;;;;;;;;;;;6.80;99.90;;;;;;5197696;27;44193;-80
2022/02/10 20:23:14;;;;;;;;;;;6.80;99.90;;;;;;5216045;27;43265;-80
2022/02/10 20:26:01;;;;;;;;;;;6.80;99.90;;;;;;5200320;27;45547;-80
2022/02/10 20:28:29;;;;;;;;;;;6.80;99.90;;;;;;5197737;27;43398;-80
2022/02/10 20:30:56;;;;;;;;;;;6.80;99.90;;;;;;5197165;27;43408;-80
2022/02/10 20:33:26;;;;;;;;;;;6.80;99.90;;;;;;5216098;27;43971;-80
2022/02/10 20:35:57;;;;;;;;;;;6.80;99.90;;;;;;5197141;27;42970;-80
2022/02/10 20:38:24;;;;;;;;;;;6.70;99.90;;;;;;5197831;27;44366;-80
2022/02/10 20:41:04;;;;;;;;;;;6.70;99.90;;;;;;5216346;27;44848;-80
2022/02/10 20:43:31;;;;;;;;;;;6.70;99.90;;;;;;5197058;27;44934;-80
2022/02/10 20:46:05;;;;;;;;;;;6.70;99.90;;;;;;5197034;27;43541;-80
2022/02/10 20:48:34;;;;;;;;;;;6.70;99.90;;;;;;5197081;27;42650;-80
2022/02/10 20:51:03;;;;;;;;;;;6.70;99.90;;;;;;5215659;27;44380;-80
2022/02/10 20:53:31;;;;;;;;;;;6.70;99.90;;;;;;5215651;27;44057;-80
2022/02/10 20:55:59;;;;;;;;;;;6.70;99.90;;;;;;5215609;27;44253;-80
2022/02/10 20:58:28;;;;;;;;;;;6.60;99.90;;;;;;5196806;27;44667;-80
2022/02/10 21:00:58;;;;;;;;;;;6.60;99.90;;;;;;5196686;27;43471;-80
2022/02/10 21:03:28;;;;;;;;;;;6.60;99.90;;;;;;5196924;27;43696;-80
2022/02/10 21:06:09;;;;;;;;;;;6.60;99.90;;;;;;5215610;27;44043;-80
2022/02/10 21:08:51;;;;;;;;;;;6.50;99.90;;;;;;5197662;27;44100;-80
2022/02/10 21:11:19;;;;;;;;;;;6.50;99.90;;;;;;5216103;27;44046;-80
2022/02/10 21:13:46;;;;;;;;;;;6.50;99.90;;;;;;5216103;27;46015;-80
2022/02/10 21:16:13;;;;;;;;;;;6.50;99.90;;;;;;5197004;27;42783;-80
2022/02/10 21:18:42;;;;;;;;;;;6.40;99.90;;;;;;5215541;27;42733;-80
2022/02/10 21:21:14;;;;;;;;;;;6.40;99.90;;;;;;5196662;27;43235;-80
2022/02/10 21:26:14;;;;;;;;;;;6.40;99.90;;;;;;5215449;27;44226;-80
2022/02/10 21:28:42;;;;;;;;;;;6.40;99.90;;;;;;5196783;27;44953;-80
2022/02/10 21:31:10;;;;;;;;;;;6.40;99.90;;;;;;5196527;27;44364;-80
2022/02/10 21:38:43;;;;;;;;;;;6.30;99.90;;;;;;5215657;27;43006;-80
2022/02/10 22:19:00;;;;;;;;;;;6.20;99.90;;;;;;5215211;27;42640;-81
2022/02/10 22:21:32;;;;;;;;;;;6.20;99.90;;;;;;5197169;27;41493;-80
2022/02/10 22:24:02;;;;;;;;;;;6.20;99.90;;;;;;5196920;27;42923;-80
2022/02/10 22:26:31;;;;;;;;;;;6.20;99.90;;;;;;5215023;27;42974;-81
2022/02/10 22:36:35;;;;;;;;;;;6.20;99.90;;;;;;5215376;27;43507;-81
2022/02/10 22:39:03;;;;;;;;;;;6.20;99.90;;;;;;5214994;27;44372;-81
2022/02/10 22:41:30;;;;;;;;;;;6.10;99.90;;;;;;5196146;27;43050;-80
2022/02/10 22:44:00;;;;;;;;;;;6.10;99.90;;;;;;5197600;27;19996;-81
2022/02/10 22:46:27;;;;;;;;;;;6.10;99.90;;;;;;5214979;27;43003;-81
2022/02/10 22:48:54;;;;;;;;;;;6.10;99.90;;;;;;5196723;27;44656;-81
2022/02/10 22:51:22;;;;;;;;;;;6.10;99.90;;;;;;5215676;27;43223;-80
2022/02/10 22:53:49;;;;;;;;;;;6.10;99.90;;;;;;5214941;27;44265;-81
2022/02/10 22:56:18;;;;;;;;;;;6.00;99.90;;;;;;5215008;27;42916;-81
2022/02/10 22:58:46;;;;;;;;;;;6.10;99.90;;;;;;5196130;27;43298;-81
2022/02/10 23:01:14;;;;;;;;;;;6.10;99.90;;;;;;5195932;27;44117;-81
2022/02/10 23:03:41;;;;;;;;;;;6.00;99.90;;;;;;5196183;27;44152;-81
2022/02/10 23:06:10;;;;;;;;;;;6.00;99.90;;;;;;5196031;27;43379;-81
2022/02/10 23:08:37;;;;;;;;;;;6.00;99.90;;;;;;5196263;27;44032;-81
2022/02/10 23:11:05;;;;;;;;;;;6.00;99.90;;;;;;5196923;27;44274;-80
2022/02/10 23:13:33;;;;;;;;;;;6.00;99.90;;;;;;5215793;27;43530;-81
2022/02/10 23:16:03;;;;;;;;;;;6.00;99.90;;;;;;5196703;27;44581;-81
2022/02/10 23:18:31;;;;;;;;;;;6.00;99.90;;;;;;5196141;27;44065;-80
2022/02/10 23:20:59;;;;;;;;;;;6.00;99.90;;;;;;5196025;27;43779;-81
2022/02/10 23:23:28;;;;;;;;;;;6.00;99.90;;;;;;5196066;27;44165;-80
2022/02/10 23:25:55;;;;;;;;;;;6.00;99.90;;;;;;5196138;27;43144;-81
2022/02/10 23:28:24;;;;;;;;;;;6.00;99.90;;;;;;5214856;27;43552;-81
2022/02/10 23:30:52;;;;;;;;;;;6.00;99.90;;;;;;5195963;27;44036;-80
2022/02/10 23:33:36;;;;;;;;;;;6.00;99.90;;;;;;5214617;27;44442;-81
2022/02/10 23:38:55;;;;;;;;;;;5.90;99.90;;;;;;5215660;27;46218;-81
2022/02/10 23:43:59;;;;;;;;;;;5.90;99.90;;;;;;5215054;27;44020;-80
2022/02/10 23:46:27;;;;;;;;;;;5.90;99.90;;;;;;5197114;27;20375;-81
2022/02/10 23:48:55;;;;;;;;;;;5.90;99.90;;;;;;5195964;27;46080;-80
2022/02/10 23:51:26;;;;;;;;;;;5.90;99.90;;;;;;5196416;27;43307;-81
2022/02/10 23:53:54;;;;;;;;;;;5.90;99.90;;;;;;5196771;27;43630;-81
2022/02/10 23:56:26;;;;;;;;;;;5.80;99.90;;;;;;5215357;27;43215;-81
2022/02/10 23:58:59;;;;;;;;;;;5.90;99.90;;;;;;5196997;27;43983;-81
